Deva — A8OK3 — position and weather

sailwx.info

Track history (hours):
 
Tides and Currents Weather Stations Pressure Air Temp Water Temp Dewpoint Dewpoint Depression Visibility Wind Speed Wind Dir Waves Ship Positions

Deva

Last reported at 2014-Sep-22 17:31 UTC. Time now 2014-Sep-22 18:13 UTC.
Position N 51°58' E 001°18'.

Length 259 m; draft 10.1 m.

Type: Ship (hazmat cat A). MMSI: 636013644.

Date/timePositionNaut miles runAvg speedWind from/ knotsBaromVisibWave heightAir tempDewpointWater temp
2014-Sep-22 17:31N 51°58' E 001°18'0 0.0
2014-Sep-22 16:31N 51°58' E 001°18'0 0.0
2014-Sep-22 15:31N 51°58' E 001°18'0 0.0
2014-Sep-22 14:31N 51°58' E 001°18'0 0.0
2014-Sep-22 13:31N 51°58' E 001°18'0 0.0
2014-Sep-22 12:31N 51°58' E 001°18'0 0.0
2014-Sep-22 11:31N 51°58' E 001°18'0 0.0
2014-Sep-22 10:31N 51°58' E 001°18'0 0.0
2014-Sep-22 09:31N 51°58' E 001°18'0 0.0
2014-Sep-22 08:31N 51°58' E 001°18'0 0.0
2014-Sep-22 07:31N 51°58' E 001°18'0 0.0
2014-Sep-22 06:31N 51°58' E 001°18'0 0.2
2014-Sep-22 05:33N 51°57' E 001°18'8 8.0
2014-Sep-22 04:33N 51°56' E 001°31'1111.4
2014-Sep-22 03:33N 51°51' E 001°47'1515.2
2014-Sep-22 02:33N 51°36' E 001°50'1515.0
2014-Sep-22 01:33N 51°22' E 002°01'1717.4
2014-Sep-22 00:33N 51°09' E 001°43'1817.8
2014-Sep-21 23:33N 50°55' E 001°26'1716.8
2014-Sep-21 22:33N 50°40' E 001°15'1717.1
2014-Sep-21 21:34N 50°30' E 000°53'1717.4
2014-Sep-21 20:34N 50°25' E 000°27'  
2014-Sep-19 13:32N 37°59' W 009°38'1717.1
2014-Sep-19 12:33N 37°42' W 009°34'1717.1
2014-Sep-19 11:32N 37°25' W 009°29'6115.3
2014-Sep-19 07:33N 36°38' W 008°41'15616.8
2014-Sep-18 22:18N 35°59' W 005°34'1317.1
2014-Sep-18 21:33N 36°01' W 005°19'22617.3
2014-Sep-18 08:30N 36°44' W 000°43'17517.1
2014-Sep-17 22:19N 37°27' E 002°49'5117.1
2014-Sep-17 19:19N 37°41' E 003°51'4817.0
2014-Sep-17 16:28N 37°52' E 004°51'8917.0
2014-Sep-17 11:14N 38°14' E 006°41'1116.9
2014-Sep-17 10:34N 38°17' E 006°55'2617.2
2014-Sep-17 09:04N 38°23' E 007°26'1617.1
2014-Sep-17 08:10N 38°27' E 007°45'1117.3
2014-Sep-17 07:34N 38°29' E 007°58'2217.2
2014-Sep-17 06:16N 38°35' E 008°26'1617.1
2014-Sep-17 05:21N 38°40' E 008°45'1716.9
2014-Sep-17 04:21N 38°45' E 009°05'1316.8
2014-Sep-17 03:33N 38°50' E 009°21'2116.8
2014-Sep-17 02:18N 38°58' E 009°46'1216.8
2014-Sep-17 01:33N 39°04' E 010°01'238 7.2
2014-Sep-15 16:22N 40°35' E 014°47'1 0.5
2014-Sep-15 15:14N 40°35' E 014°46'0 0.5
2014-Sep-15 14:32N 40°35' E 014°46'3 2.9
2014-Sep-15 13:25N 40°32' E 014°45'1112.6
2014-Sep-15 12:33N 40°21' E 014°45'  
Track history (hours):
 
Tides and Currents Weather Stations Pressure Air Temp Water Temp Dewpoint Dewpoint Depression Visibility Wind Speed Wind Dir Waves Ship Positions

Deva

Last reported at 2014-Sep-22 17:31 UTC. Time now 2014-Sep-22 18:13 UTC.
Position N 51°58' E 001°18'.

Length 259 m; draft 10.1 m.

Type: Ship (hazmat cat A). MMSI: 636013644.

Date/timePositionNaut miles runAvg speedWind from/ knotsBaromVisibWave heightAir tempDewpointWater temp
2014-Sep-22 17:31N 51°58' E 001°18'0 0.0
2014-Sep-22 16:31N 51°58' E 001°18'0 0.0
2014-Sep-22 15:31N 51°58' E 001°18'0 0.0
2014-Sep-22 14:31N 51°58' E 001°18'0 0.0
2014-Sep-22 13:31N 51°58' E 001°18'0 0.0
2014-Sep-22 12:31N 51°58' E 001°18'0 0.0
2014-Sep-22 11:31N 51°58' E 001°18'0 0.0
2014-Sep-22 10:31N 51°58' E 001°18'0 0.0
2014-Sep-22 09:31N 51°58' E 001°18'0 0.0
2014-Sep-22 08:31N 51°58' E 001°18'0 0.0
2014-Sep-22 07:31N 51°58' E 001°18'0 0.0
2014-Sep-22 06:31N 51°58' E 001°18'0 0.2
2014-Sep-22 05:33N 51°57' E 001°18'8 8.0
2014-Sep-22 04:33N 51°56' E 001°31'1111.4
2014-Sep-22 03:33N 51°51' E 001°47'1515.2
2014-Sep-22 02:33N 51°36' E 001°50'1515.0
2014-Sep-22 01:33N 51°22' E 002°01'1717.4
2014-Sep-22 00:33N 51°09' E 001°43'1817.8
2014-Sep-21 23:33N 50°55' E 001°26'1716.8
2014-Sep-21 22:33N 50°40' E 001°15'1717.1
2014-Sep-21 21:34N 50°30' E 000°53'1717.4
2014-Sep-21 20:34N 50°25' E 000°27'  
2014-Sep-19 13:32N 37°59' W 009°38'1717.1
2014-Sep-19 12:33N 37°42' W 009°34'1717.1
2014-Sep-19 11:32N 37°25' W 009°29'6115.3
2014-Sep-19 07:33N 36°38' W 008°41'15616.8
2014-Sep-18 22:18N 35°59' W 005°34'1317.1
2014-Sep-18 21:33N 36°01' W 005°19'22617.3
2014-Sep-18 08:30N 36°44' W 000°43'17517.1
2014-Sep-17 22:19N 37°27' E 002°49'5117.1
2014-Sep-17 19:19N 37°41' E 003°51'4817.0
2014-Sep-17 16:28N 37°52' E 004°51'8917.0
2014-Sep-17 11:14N 38°14' E 006°41'1116.9
2014-Sep-17 10:34N 38°17' E 006°55'2617.2
2014-Sep-17 09:04N 38°23' E 007°26'1617.1
2014-Sep-17 08:10N 38°27' E 007°45'1117.3
2014-Sep-17 07:34N 38°29' E 007°58'2217.2
2014-Sep-17 06:16N 38°35' E 008°26'1617.1
2014-Sep-17 05:21N 38°40' E 008°45'1716.9
2014-Sep-17 04:21N 38°45' E 009°05'1316.8
2014-Sep-17 03:33N 38°50' E 009°21'2116.8
2014-Sep-17 02:18N 38°58' E 009°46'1216.8
2014-Sep-17 01:33N 39°04' E 010°01'238 7.2
2014-Sep-15 16:22N 40°35' E 014°47'1 0.5
2014-Sep-15 15:14N 40°35' E 014°46'0 0.5
2014-Sep-15 14:32N 40°35' E 014°46'3 2.9
2014-Sep-15 13:25N 40°32' E 014°45'1112.6
2014-Sep-15 12:33N 40°21' E 014°45'  

Dump ship's entire track history